Rechercher aéroport 
image banner adimage banner adimage banner ad
image banner ad

CN39 - Operating Engineers Pension Trust Bldg

Situé à Los Angeles, United States

ICAO - CN39, IATA -

Données fournies par Airmate  

Information générale

Coordonnées: N34°3'43" W118°17'28"
Élévation : 441 feet MSL.
Variation magnétique : 14° East
Voir autres Aéroports à California

Données opérationnelles

Special qualification required
Heure actuelle UTC:
Heure actuelle locale:
Météo à : KSMO - Santa Monica Muni ( 16 km )
METAR: KSMO 251126Z AUTO 00000KT 10SM BKN014 19/16 A2996 RMK AO2 T01890161
TAF: KSMO 250733Z 2508/2606 VRB03KT P6SM BKN010 BKN150 FM251200 VRB03KT P6SM BKN014 OVC150 FM251900 23008KT P6SM SCT020 BKN110 FM260400 VRB03KT P6SM SCT015 BKN110
Voir NOTAMs / SUP AIP / TFR affectant cet aéroport [VIEW]
Fréquences de communication: [VIEW]

Pistes:

Coordonnées de l'aéroport

Adresse: Los Angeles United States

Vue satellite de CN39